createdAt,value
2023-04-25T00:00:53.977Z,4.20
2023-04-25T00:03:22.358Z,3.95
2023-04-25T00:05:50.048Z,4.18
2023-04-25T00:08:18.509Z,4.03
2023-04-25T00:10:45.258Z,3.70
2023-04-25T00:13:12.732Z,4.10
2023-04-25T00:15:42.730Z,4.47
2023-04-25T00:18:09.982Z,3.80
2023-04-25T00:20:37.041Z,4.13
2023-04-25T00:23:03.640Z,4.28
2023-04-25T00:25:30.484Z,3.90
2023-04-25T00:27:57.691Z,3.50
2023-04-25T00:30:24.471Z,4.30
2023-04-25T00:32:51.674Z,4.95
2023-04-25T00:35:18.313Z,4.43
2023-04-25T00:37:46.305Z,3.55
2023-04-25T00:40:12.993Z,4.15
2023-04-25T00:42:41.271Z,4.13
2023-04-25T00:45:10.390Z,4.28
2023-04-25T00:47:38.547Z,4.13
2023-04-25T00:50:06.129Z,3.70
2023-04-25T00:52:32.730Z,4.18
2023-04-25T00:55:00.017Z,3.85
2023-04-25T00:57:26.821Z,3.92
2023-04-25T00:59:54.530Z,3.95
2023-04-25T01:02:23.719Z,4.38
2023-04-25T01:04:51.867Z,4.07
2023-04-25T01:07:18.754Z,5.18
2023-04-25T01:09:45.405Z,4.03
2023-04-25T01:12:12.256Z,4.05
2023-04-25T01:14:39.584Z,4.28
2023-04-25T01:17:06.488Z,4.15
2023-04-25T01:19:33.231Z,4.50
2023-04-25T01:21:59.910Z,4.15
2023-04-25T01:24:27.083Z,4.65
2023-04-25T01:26:57.311Z,4.28
2023-04-25T01:29:24.524Z,4.90
2023-04-25T01:31:53.574Z,5.10
2023-04-25T01:34:20.747Z,4.40
2023-04-25T01:36:51.378Z,4.22
2023-04-25T01:39:18.833Z,4.72
2023-04-25T01:41:49.700Z,4.80
2023-04-25T01:44:16.600Z,5.00
2023-04-25T01:46:46.634Z,5.50
2023-04-25T01:49:13.342Z,4.90
2023-04-25T01:51:40.008Z,5.47
2023-04-25T01:54:06.816Z,6.68
2023-04-25T01:56:37.682Z,5.70
2023-04-25T01:59:07.644Z,5.47
2023-04-25T02:01:34.413Z,4.47
2023-04-25T02:04:02.955Z,4.93
2023-04-25T02:06:29.725Z,5.25
2023-04-25T02:08:56.333Z,5.22
2023-04-25T02:11:23.282Z,5.07
2023-04-25T02:13:50.128Z,4.90
2023-04-25T02:16:16.976Z,5.40
2023-04-25T02:18:44.099Z,4.65
2023-04-25T02:21:10.761Z,4.35
2023-04-25T02:23:37.461Z,4.70
2023-04-25T02:26:04.278Z,4.70
2023-04-25T02:28:32.259Z,4.88
2023-04-25T02:31:01.482Z,5.00
2023-04-25T02:33:28.129Z,4.60
2023-04-25T02:35:54.714Z,4.32
2023-04-25T02:38:21.292Z,4.97
2023-04-25T02:40:49.480Z,4.50
2023-04-25T02:43:17.102Z,4.10
2023-04-25T02:45:43.714Z,4.10
2023-04-25T02:48:10.326Z,3.92
2023-04-25T02:50:37.054Z,4.00
2023-04-25T02:53:03.666Z,4.70
2023-04-25T02:55:30.267Z,4.65
2023-04-25T02:57:57.538Z,4.72
2023-04-25T03:00:25.858Z,4.80
2023-04-25T03:02:52.525Z,4.80
2023-04-25T03:05:20.631Z,5.25
2023-04-25T03:07:47.270Z,4.28
2023-04-25T03:10:14.082Z,5.50
2023-04-25T03:12:40.722Z,4.50
2023-04-25T03:15:07.666Z,4.82
2023-04-25T03:17:34.364Z,4.57
2023-04-25T03:20:01.553Z,4.85
2023-04-25T03:22:29.722Z,4.63
2023-04-25T03:24:56.230Z,4.47
2023-04-25T03:27:22.864Z,5.10
2023-04-25T03:29:49.412Z,5.03
2023-04-25T03:32:16.083Z,4.32
2023-04-25T03:34:42.753Z,4.38
2023-04-25T03:37:09.342Z,4.63
2023-04-25T03:39:36.148Z,5.32
2023-04-25T03:42:03.994Z,4.93
2023-04-25T03:44:30.630Z,4.32
2023-04-25T03:46:57.567Z,4.88
2023-04-25T03:49:24.143Z,5.00
2023-04-25T03:51:50.867Z,4.80
2023-04-25T03:54:17.698Z,6.07
2023-04-25T03:56:44.364Z,5.60
2023-04-25T03:59:11.246Z,4.80
2023-04-25T04:01:37.974Z,4.68
2023-04-25T04:04:05.162Z,4.60
2023-04-25T04:06:34.187Z,5.55
2023-04-25T04:09:00.837Z,4.82
2023-04-25T04:11:27.937Z,4.72
2023-04-25T04:13:54.496Z,4.70
2023-04-25T04:16:21.410Z,4.93
2023-04-25T04:18:48.153Z,4.68
2023-04-25T04:21:14.779Z,5.13
2023-04-25T04:23:41.589Z,4.60
2023-04-25T04:26:10.008Z,5.00
2023-04-25T04:28:36.905Z,5.45
2023-04-25T04:31:04.819Z,5.07
2023-04-25T04:33:32.092Z,5.35
2023-04-25T04:35:59.017Z,5.47
2023-04-25T04:38:27.575Z,5.15
2023-04-25T04:40:54.901Z,4.68
2023-04-25T04:43:21.586Z,5.55
2023-04-25T04:45:48.714Z,4.72
2023-04-25T04:48:15.543Z,4.97
2023-04-25T04:50:46.010Z,4.70
2023-04-25T04:53:12.922Z,4.35
2023-04-25T04:55:39.947Z,4.47
2023-04-25T04:58:06.702Z,4.90
2023-04-25T05:00:34.185Z,4.97
2023-04-25T05:03:01.259Z,5.95
2023-04-25T05:05:28.040Z,5.50
2023-04-25T05:07:55.928Z,5.65
2023-04-25T05:10:23.572Z,6.18
2023-04-25T05:12:50.710Z,7.07
2023-04-25T05:15:17.354Z,5.75
2023-04-25T05:17:44.064Z,5.88
2023-04-25T05:20:11.545Z,5.65
2023-04-25T05:22:38.525Z,5.45
2023-04-25T05:25:05.705Z,5.30
2023-04-25T05:27:32.338Z,5.30
2023-04-25T05:29:58.892Z,4.93
2023-04-25T05:32:26.414Z,5.25
2023-04-25T05:34:53.373Z,4.85
2023-04-25T05:37:19.935Z,5.35
2023-04-25T05:39:46.577Z,5.55
2023-04-25T05:42:13.088Z,5.72
2023-04-25T05:44:39.817Z,5.32
2023-04-25T05:47:06.470Z,5.30
2023-04-25T05:49:33.139Z,5.07
2023-04-25T05:51:59.742Z,5.95
2023-04-25T05:54:26.416Z,5.53
2023-04-25T05:56:53.010Z,5.45
2023-04-25T05:59:19.678Z,5.10
2023-04-25T06:01:48.506Z,4.93
2023-04-25T06:04:16.023Z,4.63
2023-04-25T06:06:42.730Z,4.60
2023-04-25T06:09:09.516Z,4.47
2023-04-25T06:11:36.398Z,4.82
2023-04-25T06:14:03.021Z,4.05
2023-04-25T06:16:29.863Z,4.47
2023-04-25T06:18:56.640Z,3.88
2023-04-25T06:21:23.289Z,4.40
2023-04-25T06:23:50.703Z,4.97
2023-04-25T06:26:17.881Z,4.10
2023-04-25T06:28:44.458Z,4.53
2023-04-25T06:31:11.276Z,4.47
2023-04-25T06:33:38.005Z,4.43
2023-04-25T06:36:04.929Z,4.45
2023-04-25T06:38:32.134Z,4.30
2023-04-25T06:40:58.749Z,4.40
2023-04-25T06:43:25.862Z,4.60
2023-04-25T06:45:52.517Z,4.53
2023-04-25T06:48:19.043Z,4.28
2023-04-25T06:50:45.733Z,4.07
2023-04-25T06:53:12.678Z,4.18
2023-04-25T06:55:39.532Z,4.35
2023-04-25T06:58:06.114Z,4.65
2023-04-25T07:00:34.565Z,4.82
2023-04-25T07:03:01.715Z,4.30
2023-04-25T07:05:28.548Z,3.97
2023-04-25T07:07:56.374Z,3.72
2023-04-25T07:10:23.828Z,4.93
2023-04-25T07:12:51.194Z,4.20
2023-04-25T07:15:18.963Z,3.95
2023-04-25T07:17:45.640Z,4.35
2023-04-25T07:20:12.766Z,4.15
2023-04-25T07:22:39.443Z,4.25
2023-04-25T07:25:07.006Z,4.10
2023-04-25T07:27:33.947Z,4.70
2023-04-25T07:30:00.636Z,5.45
2023-04-25T07:32:27.861Z,4.78
2023-04-25T07:34:54.578Z,5.00
2023-04-25T07:37:21.288Z,5.07
2023-04-25T07:39:48.037Z,3.88
2023-04-25T07:42:14.690Z,4.40
2023-04-25T07:44:42.052Z,3.53
2023-04-25T07:47:11.451Z,4.10
2023-04-25T07:49:39.254Z,4.30
2023-04-25T07:52:09.729Z,4.32
2023-04-25T07:54:36.694Z,4.40
2023-04-25T07:57:05.568Z,4.97
2023-04-25T07:59:33.918Z,5.18
2023-04-25T08:02:02.232Z,4.82
2023-04-25T08:04:29.104Z,4.93
2023-04-25T08:06:55.814Z,4.43
2023-04-25T08:09:26.073Z,5.03
2023-04-25T08:11:52.808Z,4.55
2023-04-25T13:02:35.107Z,2.28
2023-04-25T13:05:01.932Z,1.92
2023-04-25T13:07:28.641Z,2.35
2023-04-25T13:09:55.481Z,2.45
2023-04-25T13:12:22.348Z,3.03
2023-04-25T13:14:48.957Z,2.60
2023-04-25T13:17:17.042Z,2.88
2023-04-25T13:19:43.825Z,2.95
2023-04-25T13:25:50.705Z,2.33
2023-04-25T13:28:26.891Z,2.70
2023-04-25T13:30:57.384Z,2.58
2023-04-25T13:33:24.105Z,2.50
2023-04-25T13:36:00.758Z,2.35
2023-04-25T13:38:28.661Z,2.15
2023-04-25T13:40:55.413Z,3.13
2023-04-25T13:43:25.450Z,2.10
2023-04-25T13:45:52.671Z,2.43
2023-04-25T13:48:21.171Z,2.40
2023-04-25T13:50:48.306Z,2.47
2023-04-25T13:53:15.889Z,2.42
2023-04-25T13:55:43.598Z,2.45
2023-04-25T13:58:11.037Z,2.25
2023-04-25T14:00:40.169Z,2.10
2023-04-25T14:03:10.423Z,2.00
2023-04-25T14:05:41.315Z,2.17
2023-04-25T14:08:12.506Z,2.30
2023-04-25T14:13:07.012Z,2.13
2023-04-25T14:15:37.423Z,2.33
2023-04-25T14:18:04.280Z,2.08
2023-04-25T14:20:31.119Z,2.03
2023-04-25T14:22:59.401Z,2.13
2023-04-25T14:25:26.701Z,2.08
2023-04-25T14:27:55.472Z,2.20
2023-04-25T14:30:23.932Z,2.03
2023-04-25T14:32:51.030Z,2.42
2023-04-25T14:35:17.988Z,2.05
2023-04-25T14:37:45.089Z,1.80
2023-04-25T14:40:14.067Z,2.20
2023-04-25T14:42:41.081Z,2.17
2023-04-25T14:45:10.631Z,2.10
2023-04-25T14:47:38.832Z,3.03
2023-04-25T14:50:07.350Z,2.42
2023-04-25T14:52:34.000Z,2.53
2023-04-25T14:55:06.098Z,2.33
2023-04-25T14:57:34.847Z,1.83
2023-04-25T15:00:02.206Z,2.10
2023-04-25T15:02:29.437Z,2.17
2023-04-25T15:04:58.493Z,2.38
2023-04-25T15:07:25.677Z,2.15
2023-04-25T15:09:54.308Z,2.08
2023-04-25T15:12:22.848Z,1.95
2023-04-25T15:14:49.544Z,2.50
2023-04-25T15:17:16.235Z,2.20
2023-04-25T15:19:42.970Z,2.20
2023-04-25T15:22:10.097Z,2.10
2023-04-25T15:24:36.923Z,2.40
2023-04-25T15:27:07.483Z,1.90
2023-04-25T15:29:34.119Z,2.08
2023-04-25T15:32:00.940Z,2.30
2023-04-25T15:34:27.963Z,2.83
2023-04-25T15:36:56.503Z,2.30
2023-04-25T15:39:23.169Z,2.05
2023-04-25T15:41:49.848Z,2.40
2023-04-25T15:44:16.438Z,2.00
2023-04-25T15:46:44.384Z,1.98
2023-04-25T15:49:11.130Z,2.47
2023-04-25T15:51:37.773Z,2.10
2023-04-25T15:54:04.437Z,1.80
2023-04-25T15:56:32.066Z,1.73
2023-04-25T15:59:00.624Z,2.20
2023-04-25T16:01:30.742Z,2.65
2023-04-25T16:06:27.706Z,2.00
2023-04-25T16:08:55.117Z,2.30
2023-04-25T16:11:21.776Z,1.88
2023-04-25T16:13:50.619Z,1.70
2023-04-25T16:16:17.448Z,1.80
2023-04-25T16:18:44.403Z,1.95
2023-04-25T16:21:16.960Z,2.15
2023-04-25T16:23:43.982Z,1.83
2023-04-25T16:26:10.970Z,2.00
2023-04-25T16:28:37.550Z,2.15
2023-04-25T16:31:04.273Z,1.88
2023-04-25T16:33:31.664Z,1.95
2023-04-25T16:35:58.442Z,2.30
2023-04-25T16:38:28.004Z,2.10
2023-04-25T16:40:54.717Z,2.10
2023-04-25T16:43:21.430Z,2.15
2023-04-25T16:45:48.577Z,1.80
2023-04-25T16:48:16.347Z,1.95
2023-04-25T16:50:42.968Z,1.55
2023-04-25T16:53:09.884Z,1.80
2023-04-25T16:55:38.558Z,2.25
2023-04-25T16:58:05.179Z,2.00
2023-04-25T17:00:33.676Z,2.00
2023-04-25T17:03:00.699Z,2.08
2023-04-25T17:05:27.504Z,2.10
2023-04-25T17:07:54.177Z,2.22
2023-04-25T17:10:21.326Z,2.15
2023-04-25T17:12:48.127Z,2.13
2023-04-25T17:15:14.758Z,1.77
2023-04-25T17:17:41.787Z,1.92
2023-04-25T17:20:13.736Z,2.00
2023-04-25T17:22:40.872Z,2.15
2023-04-25T17:25:09.378Z,2.53
2023-04-25T17:27:37.971Z,2.20
2023-04-25T17:30:08.433Z,1.60
2023-04-25T17:32:35.890Z,2.20
2023-04-25T17:35:02.574Z,2.58
2023-04-25T17:37:29.197Z,2.08
2023-04-25T17:39:55.851Z,1.85
2023-04-25T17:42:24.063Z,2.42
2023-04-25T17:44:50.761Z,1.75
2023-04-25T17:47:17.457Z,2.10
2023-04-25T17:49:44.089Z,1.90
2023-04-25T17:52:11.133Z,1.88
2023-04-25T17:54:38.009Z,2.40
2023-04-25T17:57:04.880Z,2.45
2023-04-25T17:59:31.578Z,2.45
2023-04-25T18:02:00.004Z,2.72
2023-04-25T18:04:27.191Z,1.92
2023-04-25T18:06:55.849Z,2.17
2023-04-25T18:09:23.778Z,2.47
2023-04-25T18:11:54.554Z,2.20
2023-04-25T18:14:22.190Z,2.30
2023-04-25T18:16:53.757Z,2.40
2023-04-25T18:19:21.698Z,2.13
2023-04-25T18:21:54.595Z,3.30
2023-04-25T18:24:26.351Z,2.30
2023-04-25T18:26:55.046Z,2.13
2023-04-25T18:29:32.260Z,2.25
2023-04-25T18:32:02.594Z,2.42
2023-04-25T18:34:30.135Z,2.70
2023-04-25T18:36:57.160Z,2.38
2023-04-25T18:39:27.372Z,1.88
2023-04-25T18:42:04.348Z,2.67
2023-04-25T18:44:33.914Z,3.08
2023-04-25T18:47:00.927Z,2.78
2023-04-25T18:49:28.164Z,2.22
2023-04-25T18:51:56.310Z,2.45
2023-04-25T18:54:22.965Z,2.33
2023-04-25T18:56:49.728Z,2.60
2023-04-25T18:59:17.320Z,2.70
2023-04-25T19:01:46.185Z,2.20
2023-04-25T19:04:12.909Z,2.45
2023-04-25T19:06:41.474Z,2.25
2023-04-25T19:09:12.106Z,2.42
2023-04-25T19:11:38.922Z,2.38
2023-04-25T19:14:05.780Z,2.50
2023-04-25T19:16:38.830Z,2.40
2023-04-25T19:19:07.688Z,3.03
2023-04-25T19:21:36.216Z,3.30
2023-04-25T19:24:06.525Z,3.75
2023-04-25T19:26:33.187Z,2.53
2023-04-25T19:29:18.124Z,3.28
2023-04-25T19:31:45.878Z,2.50
2023-04-25T19:34:13.906Z,2.80
2023-04-25T19:36:43.525Z,2.70
2023-04-25T19:39:11.994Z,3.25
2023-04-25T19:41:40.864Z,3.03
2023-04-25T19:44:09.387Z,3.40
2023-04-25T19:46:36.932Z,2.97
2023-04-25T19:49:08.364Z,3.00
2023-04-25T19:54:04.485Z,3.60
2023-04-25T19:56:34.710Z,3.50
2023-04-25T19:59:01.361Z,4.07
2023-04-25T20:01:28.414Z,3.50
2023-04-25T20:03:56.132Z,3.25
2023-04-25T20:06:23.161Z,3.58
2023-04-25T20:08:52.979Z,3.60
2023-04-25T20:11:20.061Z,3.22
2023-04-25T20:13:48.687Z,2.70
2023-04-25T20:16:20.616Z,2.28
2023-04-25T20:18:48.715Z,2.20
2023-04-25T20:21:16.904Z,2.40
2023-04-25T20:23:43.995Z,2.58
2023-04-25T20:26:12.942Z,2.42
2023-04-25T20:28:40.167Z,1.98
2023-04-25T20:31:09.078Z,2.05
2023-04-25T20:33:37.807Z,3.20
2023-04-25T20:36:06.790Z,2.35
2023-04-25T20:38:38.537Z,2.63
2023-04-25T20:41:05.135Z,2.40
2023-04-25T20:43:32.018Z,2.30
2023-04-25T20:46:00.914Z,2.33
2023-04-25T20:48:27.513Z,2.90
2023-04-25T20:50:55.038Z,2.75
2023-04-25T20:53:24.033Z,2.97
2023-04-25T20:55:52.319Z,2.30
2023-04-25T20:58:20.679Z,2.65
2023-04-25T21:00:47.693Z,3.15
2023-04-25T21:03:15.233Z,2.83
2023-04-25T21:05:42.109Z,2.50
2023-04-25T21:08:10.255Z,2.85
2023-04-25T21:10:37.697Z,2.70
2023-04-25T21:13:04.389Z,2.40
2023-04-25T21:15:31.250Z,2.33
2023-04-25T21:17:57.961Z,2.53
2023-04-25T21:20:24.556Z,2.50
2023-04-25T21:22:53.847Z,2.95
2023-04-25T21:25:30.121Z,3.38
2023-04-25T21:27:57.840Z,2.97
2023-04-25T21:30:27.432Z,2.88
2023-04-25T21:32:55.075Z,3.15
2023-04-25T21:35:23.084Z,3.92
2023-04-25T21:37:50.890Z,2.70
2023-04-25T21:40:19.830Z,2.00
2023-04-25T21:42:53.429Z,2.28
2023-04-25T21:45:23.476Z,2.70
2023-04-25T21:47:50.799Z,2.58
2023-04-25T21:50:17.727Z,2.40
2023-04-25T21:52:46.328Z,2.50
2023-04-25T21:55:12.972Z,2.67
2023-04-25T21:57:39.680Z,3.33
2023-04-25T22:00:21.482Z,2.03
2023-04-25T22:02:48.736Z,2.30
2023-04-25T22:05:15.577Z,2.25
2023-04-25T22:07:42.163Z,2.35
2023-04-25T22:10:10.951Z,2.40
2023-04-25T22:12:37.809Z,3.13
2023-04-25T22:15:04.788Z,2.65
2023-04-25T22:17:31.679Z,2.10
2023-04-25T22:19:59.555Z,2.10
2023-04-25T22:22:26.529Z,2.15
2023-04-25T22:24:53.312Z,3.15
2023-04-25T22:27:22.404Z,2.30
2023-04-25T22:29:50.933Z,2.03
2023-04-25T22:32:19.860Z,2.55
2023-04-25T22:34:46.697Z,2.65
2023-04-25T22:37:13.306Z,3.70
2023-04-25T22:39:40.337Z,3.22
2023-04-25T22:42:08.763Z,3.42
2023-04-25T22:44:37.417Z,3.97
2023-04-25T22:47:04.009Z,3.83
2023-04-25T22:49:30.618Z,3.63
2023-04-25T22:51:57.524Z,3.60
2023-04-25T22:54:24.242Z,3.95
2023-04-25T22:56:51.137Z,2.83
2023-04-25T22:59:18.064Z,3.28
2023-04-25T23:01:44.939Z,3.10
2023-04-25T23:04:11.908Z,3.50
2023-04-25T23:06:38.726Z,3.90
2023-04-25T23:09:06.060Z,3.35
2023-04-25T23:11:32.847Z,4.90
2023-04-25T23:14:00.703Z,4.40
2023-04-25T23:16:29.888Z,3.90
2023-04-25T23:18:56.517Z,3.35
2023-04-25T23:21:23.244Z,3.17
2023-04-25T23:23:50.365Z,3.10
2023-04-25T23:26:16.963Z,2.97
2023-04-25T23:28:45.128Z,1.80
2023-04-25T23:31:12.870Z,1.70
2023-04-25T23:33:41.746Z,2.20
2023-04-25T23:36:08.581Z,2.00
2023-04-25T23:38:35.863Z,2.33
2023-04-25T23:41:02.431Z,3.13
2023-04-25T23:43:29.082Z,3.33
2023-04-25T23:45:55.944Z,3.55
2023-04-25T23:48:23.048Z,3.58
2023-04-25T23:50:49.748Z,3.33
2023-04-25T23:53:16.402Z,3.70
2023-04-25T23:55:43.059Z,4.03
2023-04-25T23:58:10.032Z,4.30
